createdAt,value
2023-08-22T00:00:36.821Z,101291.59
2023-08-22T00:03:05.248Z,101284.66
2023-08-22T00:05:35.663Z,101287.56
2023-08-22T00:08:06.541Z,101292.72
2023-08-22T00:10:37.852Z,101293.69
2023-08-22T00:13:06.062Z,101282.41
2023-08-22T00:15:34.164Z,101288.53
2023-08-22T00:18:02.597Z,101286.97
2023-08-22T00:20:30.603Z,101289.63
2023-08-22T00:22:58.523Z,101294.09
2023-08-22T00:25:26.602Z,101286.44
2023-08-22T00:27:56.000Z,101288.22
2023-08-22T00:30:24.064Z,101284.75
2023-08-22T00:32:52.002Z,101275.28
2023-08-22T00:35:20.037Z,101277.78
2023-08-22T00:37:47.920Z,101267.34
2023-08-22T00:40:15.869Z,101269.28
2023-08-22T00:42:43.731Z,101264.00
2023-08-22T00:45:13.452Z,101262.34
2023-08-22T00:47:41.504Z,101263.44
2023-08-22T00:50:10.476Z,101270.53
2023-08-22T00:52:39.092Z,101277.47
2023-08-22T00:55:07.756Z,101260.09
2023-08-22T00:57:35.986Z,101263.72
2023-08-22T01:00:06.686Z,101266.22
2023-08-22T01:02:36.318Z,101275.22
2023-08-22T01:05:05.103Z,101268.28
2023-08-22T01:07:39.536Z,101276.34
2023-08-22T01:10:14.543Z,101271.06
2023-08-22T01:12:47.589Z,101270.22
2023-08-22T01:15:22.308Z,101273.00
2023-08-22T01:17:53.620Z,101275.91
2023-08-22T01:20:22.366Z,101262.00
2023-08-22T01:22:51.801Z,101262.13
2023-08-22T01:25:20.018Z,101267.56
2023-08-22T01:27:55.922Z,101265.72
2023-08-22T01:30:33.663Z,101262.53
2023-08-22T01:33:08.718Z,101270.31
2023-08-22T01:35:39.995Z,101275.75
2023-08-22T01:38:10.825Z,101265.31
2023-08-22T01:40:39.716Z,101265.31
2023-08-22T01:43:07.853Z,101262.66
2023-08-22T01:45:35.799Z,101267.09
2023-08-22T01:48:03.915Z,101269.06
2023-08-22T01:50:31.829Z,101269.06
2023-08-22T01:53:00.081Z,101266.69
2023-08-22T01:55:29.494Z,101267.63
2023-08-22T01:57:57.558Z,101263.44
2023-08-22T02:00:25.565Z,101258.31
2023-08-22T02:02:53.579Z,101250.63
2023-08-22T02:05:21.771Z,101252.31
2023-08-22T02:07:49.743Z,101249.09
2023-08-22T02:10:17.690Z,101257.84
2023-08-22T02:12:47.008Z,101247.53
2023-08-22T02:15:15.047Z,101242.41
2023-08-22T02:17:43.186Z,101242.25
2023-08-22T02:20:13.221Z,101240.47
2023-08-22T02:22:41.978Z,101239.06
2023-08-22T02:25:11.080Z,101234.72
2023-08-22T02:27:39.746Z,101228.78
2023-08-22T02:30:11.309Z,101230.69
2023-08-22T02:32:39.330Z,101231.53
2023-08-22T02:35:08.046Z,101229.97
2023-08-22T02:37:35.938Z,101232.75
2023-08-22T02:40:07.326Z,101238.03
2023-08-22T02:42:35.353Z,101231.09
2023-08-22T02:45:03.622Z,101234.97
2023-08-22T02:47:33.851Z,101234.13
2023-08-22T02:50:01.881Z,101229.81
2023-08-22T02:52:30.441Z,101229.94
2023-08-22T02:54:58.411Z,101224.66
2023-08-22T02:57:26.555Z,101237.00
2023-08-22T02:59:54.765Z,101236.88
2023-08-22T03:02:22.830Z,101238.94
2023-08-22T03:04:52.561Z,101238.13
2023-08-22T03:07:20.925Z,101242.56
2023-08-22T03:09:48.953Z,101236.59
2023-08-22T03:12:16.913Z,101241.69
2023-08-22T03:14:44.915Z,101234.06
2023-08-22T03:17:13.301Z,101241.25
2023-08-22T03:19:41.417Z,101236.09
2023-08-22T03:22:10.827Z,101229.84
2023-08-22T03:24:38.787Z,101229.97
2023-08-22T03:27:06.877Z,101233.47
2023-08-22T03:29:34.912Z,101230.94
2023-08-22T03:32:02.770Z,101233.72
2023-08-22T03:34:30.691Z,101232.88
2023-08-22T03:36:58.609Z,101225.81
2023-08-22T03:39:28.081Z,101225.34
2023-08-22T03:41:56.054Z,101238.41
2023-08-22T03:44:24.115Z,101234.94
2023-08-22T03:46:52.069Z,101228.81
2023-08-22T03:49:20.058Z,101227.16
2023-08-22T03:51:48.087Z,101234.94
2023-08-22T03:54:16.236Z,101238.41
2023-08-22T03:56:45.679Z,101235.91
2023-08-22T03:59:13.867Z,101225.34
2023-08-22T04:01:44.556Z,101231.22
2023-08-22T04:04:15.398Z,101233.00
2023-08-22T04:06:43.947Z,101235.63
2023-08-22T04:09:12.105Z,101236.22
2023-08-22T04:11:41.159Z,101233.72
2023-08-22T04:14:10.690Z,101239.59
2023-08-22T04:16:38.723Z,101239.59
2023-08-22T04:19:06.663Z,101235.97
2023-08-22T04:21:34.577Z,101239.22
2023-08-22T04:24:02.531Z,101227.81
2023-08-22T04:26:30.443Z,101221.00
2023-08-22T04:28:57.930Z,101233.94
2023-08-22T04:31:27.271Z,101239.22
2023-08-22T04:33:55.253Z,101228.50
2023-08-22T04:36:23.108Z,101224.06
2023-08-22T04:38:51.032Z,101227.31
2023-08-22T04:41:19.027Z,101228.84
2023-08-22T04:43:47.019Z,101229.41
2023-08-22T04:46:16.877Z,101223.88
2023-08-22T04:48:46.475Z,101221.94
2023-08-22T04:51:14.417Z,101231.41
2023-08-22T04:53:42.668Z,101229.44
2023-08-22T04:56:10.676Z,101228.50
2023-08-22T04:58:38.788Z,101224.75
2023-08-22T05:01:07.306Z,101227.13
2023-08-22T05:03:35.275Z,101216.19
2023-08-22T05:06:04.897Z,101217.03
2023-08-22T05:08:32.868Z,101221.31
2023-08-22T05:11:00.790Z,101211.47
2023-08-22T05:13:28.698Z,101216.38
2023-08-22T05:15:56.587Z,101219.28
2023-08-22T05:18:24.623Z,101225.16
2023-08-22T05:20:53.607Z,101220.16
2023-08-22T05:23:23.319Z,101220.88
2023-08-22T05:25:51.355Z,101221.56
2023-08-22T05:28:19.271Z,101223.69
2023-08-22T05:30:47.209Z,101218.13
2023-08-22T05:33:15.169Z,101226.88
2023-08-22T05:35:43.163Z,101220.78
2023-08-22T05:38:11.121Z,101217.59
2023-08-22T05:40:40.458Z,101220.66
2023-08-22T05:43:08.466Z,101223.03
2023-08-22T05:45:36.321Z,101221.09
2023-08-22T05:48:04.602Z,101215.41
2023-08-22T05:50:32.517Z,101224.78
2023-08-22T05:53:00.646Z,101224.63
2023-08-22T05:55:28.739Z,101225.63
2023-08-22T05:57:57.990Z,101225.22
2023-08-22T06:00:25.973Z,101229.09
2023-08-22T06:02:53.953Z,101230.50
2023-08-22T06:05:21.971Z,101230.50
2023-08-22T06:07:49.946Z,101228.97
2023-08-22T06:10:18.124Z,101230.63
2023-08-22T06:12:46.066Z,101229.13
2023-08-22T06:15:15.313Z,101228.00
2023-08-22T06:17:43.474Z,101216.84
2023-08-22T06:20:12.060Z,101224.78
2023-08-22T06:22:39.947Z,101221.72
2023-08-22T06:25:08.513Z,101225.91
2023-08-22T06:27:36.854Z,101215.81
2023-08-22T06:30:06.527Z,101213.16
2023-08-22T06:32:36.027Z,101211.91
2023-08-22T06:35:05.266Z,101212.59
2023-08-22T06:37:33.344Z,101205.19
2023-08-22T06:40:01.273Z,101219.28
2023-08-22T06:42:29.214Z,101216.03
2023-08-22T06:44:58.212Z,101218.84
2023-08-22T06:47:26.451Z,101218.44
2023-08-22T06:49:55.698Z,101212.56
2023-08-22T06:52:23.681Z,101210.47
2023-08-22T06:54:51.830Z,101210.91
2023-08-22T06:57:19.822Z,101213.25
2023-08-22T06:59:47.766Z,101208.81
2023-08-22T07:02:16.148Z,101219.94
2023-08-22T07:04:44.248Z,101224.41
2023-08-22T07:07:13.726Z,101232.88
2023-08-22T07:09:41.709Z,101240.16
2023-08-22T07:12:09.805Z,101244.47
2023-08-22T07:14:43.222Z,101244.47
2023-08-22T07:17:13.427Z,101246.69
2023-08-22T07:19:42.496Z,101247.13
2023-08-22T07:22:10.776Z,101254.78
2023-08-22T07:24:40.130Z,101256.78
2023-08-22T07:27:08.068Z,101257.22
2023-08-22T07:29:35.968Z,101264.44
2023-08-22T07:32:04.271Z,101266.41
2023-08-22T07:34:33.825Z,101259.44
2023-08-22T07:37:01.793Z,101262.09
2023-08-22T07:39:29.756Z,101262.22
2023-08-22T07:41:59.124Z,101259.00
2023-08-22T07:44:27.031Z,101256.88
2023-08-22T07:46:55.109Z,101268.16
2023-08-22T07:49:23.105Z,101254.50
2023-08-22T07:51:51.014Z,101264.25
2023-08-22T07:54:19.157Z,101259.50
2023-08-22T07:56:47.222Z,101259.66
2023-08-22T07:59:16.537Z,101267.03
2023-08-22T08:01:44.604Z,101265.19
2023-08-22T08:04:12.652Z,101262.97
2023-08-22T08:06:40.589Z,101264.81
2023-08-22T08:09:13.928Z,101263.25
2023-08-22T08:11:46.870Z,101270.09
2023-08-22T08:14:16.479Z,101267.97
2023-08-22T08:16:44.395Z,101268.53
2023-08-22T08:19:14.523Z,101270.06
2023-08-22T08:21:43.083Z,101261.13
2023-08-22T08:24:12.992Z,101267.25
2023-08-22T08:26:40.922Z,101268.66
2023-08-22T08:29:08.876Z,101269.72
2023-08-22T08:31:38.243Z,101265.13
2023-08-22T08:34:06.262Z,101262.63
2023-08-22T08:36:34.264Z,101260.06
2023-08-22T08:39:02.246Z,101264.41
2023-08-22T08:41:35.081Z,101274.56
2023-08-22T08:44:04.458Z,101268.94
2023-08-22T08:46:33.275Z,101273.28
2023-08-22T08:49:03.157Z,101276.75
2023-08-22T08:51:31.562Z,101272.59
2023-08-22T08:54:00.062Z,101284.47
2023-08-22T08:56:28.299Z,101286.28
2023-08-22T08:58:56.260Z,101282.13
2023-08-22T09:01:26.821Z,101282.97
2023-08-22T09:03:54.987Z,101277.41
2023-08-22T09:06:24.373Z,101280.34
2023-08-22T09:09:05.691Z,101291.22
2023-08-22T09:11:33.974Z,101290.81
2023-08-22T09:14:01.842Z,101290.00
2023-08-22T09:16:30.734Z,101297.97
2023-08-22T09:19:02.273Z,101294.59
2023-08-22T09:21:32.226Z,101290.97
2023-08-22T09:24:08.603Z,101292.66
2023-08-22T09:26:37.274Z,101293.47
2023-08-22T09:29:08.442Z,101297.66
2023-08-22T09:31:37.365Z,101300.47
2023-08-22T09:34:11.036Z,101295.16
2023-08-22T09:36:47.448Z,101292.06
2023-08-22T09:39:17.760Z,101291.94
2023-08-22T09:41:45.746Z,101285.19
2023-08-22T09:44:14.143Z,101285.75
2023-08-22T09:46:43.260Z,101288.41
2023-08-22T09:49:15.858Z,101283.63
2023-08-22T09:51:46.246Z,101288.50
2023-08-22T09:54:15.472Z,101284.84
2023-08-22T09:56:44.164Z,101290.25
2023-08-22T09:59:14.033Z,101288.59
2023-08-22T10:01:43.315Z,101289.28
2023-08-22T10:04:13.848Z,101291.63
2023-08-22T10:06:47.302Z,101296.16
2023-08-22T10:09:18.223Z,101290.13
2023-08-22T10:11:50.792Z,101298.63
2023-08-22T10:14:25.619Z,101302.09
2023-08-22T10:16:56.063Z,101299.72
2023-08-22T10:19:25.519Z,101301.09
2023-08-22T10:21:54.435Z,101305.09
2023-08-22T10:24:30.864Z,101300.25
2023-08-22T10:27:05.051Z,101311.28
2023-08-22T10:29:38.012Z,101304.03
2023-08-22T10:32:24.987Z,101313.09
2023-08-22T10:35:26.717Z,101310.44
2023-08-22T10:37:56.102Z,101315.72
2023-08-22T10:40:30.577Z,101313.78
2023-08-22T10:43:09.333Z,101314.47
2023-08-22T10:45:50.364Z,101315.44
2023-08-22T10:48:20.515Z,101315.44
2023-08-22T10:50:51.301Z,101309.63
2023-08-22T10:53:25.539Z,101310.56
2023-08-22T10:55:56.612Z,101311.28
2023-08-22T10:58:42.052Z,101304.03
2023-08-22T11:01:12.587Z,101304.03
2023-08-22T11:03:40.935Z,101301.22
2023-08-22T11:06:13.720Z,101298.03
2023-08-22T11:08:44.501Z,101312.41
2023-08-22T11:11:16.040Z,101311.16
2023-08-22T11:13:44.751Z,101308.66
2023-08-22T11:16:14.832Z,101312.69
2023-08-22T11:18:43.408Z,101319.81
2023-08-22T11:21:11.872Z,101320.81
2023-08-22T11:23:40.092Z,101312.69
2023-08-22T11:26:11.275Z,101308.06
2023-08-22T11:28:40.843Z,101297.28
2023-08-22T11:31:16.635Z,101289.13
2023-08-22T11:33:53.523Z,101295.56
2023-08-22T11:36:26.614Z,101287.84
2023-08-22T11:38:56.106Z,101291.88
2023-08-22T11:41:24.387Z,101291.88
2023-08-22T11:44:02.067Z,101289.06
2023-08-22T11:46:32.172Z,101280.66
2023-08-22T11:49:07.138Z,101278.97
2023-08-22T11:51:35.232Z,101274.78
2023-08-22T11:54:03.786Z,101281.28
2023-08-22T11:56:31.873Z,101272.19
2023-08-22T11:59:01.559Z,101278.84
2023-08-22T12:01:29.570Z,101272.13
2023-08-22T12:03:58.884Z,101268.63
2023-08-22T12:06:26.963Z,101273.34
2023-08-22T12:09:02.537Z,101268.41
2023-08-22T12:11:31.159Z,101260.50
2023-08-22T12:13:59.122Z,101268.56
2023-08-22T12:16:29.713Z,101260.13
2023-08-22T12:18:57.897Z,101268.25
2023-08-22T12:21:26.598Z,101263.00
2023-08-22T12:23:54.529Z,101263.38
2023-08-22T12:26:21.576Z,101258.31
2023-08-22T12:28:49.528Z,101255.88
2023-08-22T12:31:17.394Z,101255.09
2023-08-22T12:33:46.734Z,101252.59
2023-08-22T12:36:14.878Z,101254.16
2023-08-22T12:38:42.838Z,101253.69
2023-08-22T12:41:11.510Z,101248.06
2023-08-22T12:43:39.480Z,101249.09
2023-08-22T12:46:07.537Z,101256.75
2023-08-22T12:48:36.748Z,101248.28
2023-08-22T12:51:06.203Z,101248.78
2023-08-22T12:53:34.137Z,101238.56
2023-08-22T12:56:02.070Z,101242.06
2023-08-22T12:58:31.537Z,101242.41
2023-08-22T13:00:59.476Z,101245.06
2023-08-22T13:03:27.534Z,101248.91
2023-08-22T13:05:55.572Z,101249.44
2023-08-22T13:08:24.885Z,101251.09
2023-08-22T13:10:53.961Z,101254.88
2023-08-22T13:13:21.962Z,101259.06
2023-08-22T13:15:50.395Z,101255.72
2023-08-22T13:18:18.515Z,101262.03
2023-08-22T13:20:46.569Z,101260.34
2023-08-22T13:23:15.023Z,101261.03
2023-08-22T13:25:44.434Z,101251.09
2023-08-22T13:28:13.734Z,101257.84
2023-08-22T13:30:42.182Z,101249.22
2023-08-22T13:33:10.143Z,101247.06
2023-08-22T13:35:38.146Z,101236.78
2023-08-22T13:38:06.328Z,101239.28
2023-08-22T13:40:34.419Z,101228.50
2023-08-22T13:43:04.889Z,101231.63
2023-08-22T13:45:32.727Z,101245.03
2023-08-22T13:48:03.627Z,101232.94
2023-08-22T13:50:32.986Z,101233.91
2023-08-22T13:53:01.027Z,101238.41
2023-08-22T13:55:29.192Z,101229.75
2023-08-22T13:57:57.779Z,101229.75
2023-08-22T14:00:28.271Z,101240.41
2023-08-22T14:02:56.520Z,101242.84
2023-08-22T14:05:24.594Z,101246.56
2023-08-22T14:07:52.887Z,101242.72
2023-08-22T14:10:25.097Z,101243.25
2023-08-22T14:12:53.533Z,101251.91
2023-08-22T14:15:21.574Z,101248.25
2023-08-22T14:17:50.929Z,101252.75
2023-08-22T14:20:19.285Z,101247.91
2023-08-22T14:22:47.300Z,101252.53
2023-08-22T14:25:15.416Z,101259.69
2023-08-22T14:27:43.429Z,101256.66
2023-08-22T14:30:13.527Z,101258.63
2023-08-22T14:32:41.542Z,101257.81
2023-08-22T14:35:11.758Z,101262.44
2023-08-22T14:37:39.782Z,101257.13
2023-08-22T14:40:09.907Z,101249.16
2023-08-22T14:42:37.976Z,101255.47
2023-08-22T14:45:06.609Z,101251.13
2023-08-22T14:47:34.639Z,101252.81
2023-08-22T14:50:02.835Z,101261.59
2023-08-22T14:52:32.197Z,101259.25
2023-08-22T14:55:03.003Z,101259.16
2023-08-22T14:57:31.453Z,101265.53
2023-08-22T15:00:00.408Z,101260.81
2023-08-22T15:02:28.383Z,101263.69
2023-08-22T15:04:56.374Z,101260.97
2023-08-22T15:07:24.377Z,101262.03
2023-08-22T15:09:53.683Z,101263.91
2023-08-22T15:12:21.677Z,101261.22
2023-08-22T15:14:49.766Z,101256.88
2023-08-22T15:17:17.821Z,101260.38
2023-08-22T15:19:45.943Z,101259.22
2023-08-22T15:22:13.940Z,101252.63
2023-08-22T15:24:41.841Z,101259.47
2023-08-22T15:27:12.450Z,101262.81
2023-08-22T15:29:40.497Z,101260.66
2023-08-22T15:32:08.932Z,101255.19
2023-08-22T15:34:36.823Z,101253.38
2023-08-22T15:37:04.783Z,101252.53
2023-08-22T15:39:32.771Z,101242.91
2023-08-22T15:42:03.498Z,101247.09
2023-08-22T15:44:32.803Z,101250.59
2023-08-22T15:47:00.823Z,101252.38
2023-08-22T15:49:28.794Z,101247.78
2023-08-22T15:51:56.687Z,101244.66
2023-08-22T15:54:24.695Z,101240.03
2023-08-22T15:56:52.807Z,101238.19
2023-08-22T15:59:20.896Z,101235.53
2023-08-22T16:01:50.271Z,101242.69
2023-08-22T16:04:18.386Z,101255.44
2023-08-22T16:06:46.348Z,101270.69
2023-08-22T16:09:14.263Z,101274.31
2023-08-22T16:11:42.288Z,101276.28
2023-08-22T16:14:10.195Z,101277.75
2023-08-22T16:16:38.117Z,101280.69
2023-08-22T16:19:07.816Z,101278.91
2023-08-22T16:21:35.784Z,101279.53
2023-08-22T16:24:04.226Z,101264.16
2023-08-22T16:26:32.733Z,101271.19
2023-08-22T16:29:00.847Z,101267.03
2023-08-22T16:31:30.182Z,101272.63
2023-08-22T16:33:58.493Z,101282.84
2023-08-22T16:36:27.844Z,101288.84
2023-08-22T16:38:55.795Z,101284.13
2023-08-22T16:41:23.764Z,101280.50
2023-08-22T16:43:51.725Z,101288.28
2023-08-22T16:46:19.862Z,101276.44
2023-08-22T16:48:47.828Z,101274.22
2023-08-22T16:51:17.483Z,101263.75
2023-08-22T16:53:46.924Z,101270.19
2023-08-22T16:56:14.885Z,101267.81
2023-08-22T16:58:44.044Z,101269.94
2023-08-22T17:01:13.786Z,101269.94
2023-08-22T17:03:44.189Z,101272.56
2023-08-22T17:06:15.264Z,101274.66
2023-08-22T17:08:43.365Z,101271.44
2023-08-22T17:11:14.363Z,101277.44
2023-08-22T17:13:44.660Z,101271.59
2023-08-22T17:16:13.382Z,101270.31
2023-08-22T17:18:41.892Z,101267.56
2023-08-22T17:21:12.331Z,101265.19
2023-08-22T17:23:40.586Z,101260.84
2023-08-22T17:26:10.114Z,101259.91
2023-08-22T17:28:41.754Z,101270.47
2023-08-22T17:31:10.804Z,101254.03
2023-08-22T17:33:40.732Z,101261.56
2023-08-22T17:36:10.972Z,101259.88
2023-08-22T17:38:40.087Z,101261.84
2023-08-22T17:41:09.190Z,101260.72
2023-08-22T17:43:40.590Z,101256.28
2023-08-22T17:46:08.651Z,101263.38
2023-08-22T17:48:36.633Z,101251.00
2023-08-22T17:51:04.745Z,101256.94
2023-08-22T17:53:32.643Z,101254.59
2023-08-22T17:56:00.550Z,101249.72
2023-08-22T17:58:28.668Z,101263.06
2023-08-22T18:00:58.007Z,101257.78
2023-08-22T18:03:27.106Z,101259.75
2023-08-22T18:05:56.303Z,101256.41
2023-08-22T18:08:24.583Z,101255.53
2023-08-22T18:10:53.611Z,101263.63
2023-08-22T18:13:21.898Z,101266.66
2023-08-22T18:16:02.875Z,101260.69
2023-08-22T18:18:39.830Z,101261.25
2023-08-22T18:21:09.934Z,101255.97
2023-08-22T18:23:38.762Z,101263.19
2023-08-22T18:26:09.042Z,101262.34
2023-08-22T18:28:37.386Z,101265.34
2023-08-22T18:31:11.822Z,101270.78
2023-08-22T18:33:41.826Z,101277.84
2023-08-22T18:36:18.534Z,101278.38
2023-08-22T18:38:46.702Z,101282.41
2023-08-22T18:41:15.440Z,101289.47
2023-08-22T18:43:44.821Z,101294.19
2023-08-22T18:46:13.137Z,101295.56
2023-08-22T18:48:42.723Z,101296.63
2023-08-22T18:51:11.189Z,101298.72
2023-08-22T18:53:39.162Z,101300.66
2023-08-22T18:56:09.933Z,101314.13
2023-08-22T18:58:40.867Z,101306.47
2023-08-22T19:01:08.997Z,101305.19
2023-08-22T19:03:37.186Z,101307.25
2023-08-22T19:06:06.772Z,101309.31
2023-08-22T19:08:34.787Z,101313.69
2023-08-22T19:11:05.161Z,101322.00
2023-08-22T19:13:33.533Z,101319.47
2023-08-22T19:16:01.627Z,101317.09
2023-08-22T19:18:29.773Z,101324.47
2023-08-22T19:20:57.830Z,101317.63
2023-08-22T19:23:27.290Z,101325.91
2023-08-22T19:25:55.258Z,101322.72
2023-08-22T19:28:23.377Z,101328.13
2023-08-22T19:30:56.519Z,101329.22
2023-08-22T19:33:25.808Z,101331.22
2023-08-22T19:35:53.965Z,101330.63
2023-08-22T19:38:22.029Z,101330.06
2023-08-22T19:40:51.552Z,101330.31
2023-08-22T19:43:19.470Z,101330.44
2023-08-22T19:45:47.855Z,101325.19
2023-08-22T19:48:15.925Z,101316.53
2023-08-22T19:50:43.857Z,101323.72
2023-08-22T19:53:12.467Z,101323.03
2023-08-22T19:55:40.749Z,101318.72
2023-08-22T19:58:10.159Z,101324.09
2023-08-22T20:00:39.568Z,101323.28
2023-08-22T20:03:07.585Z,101321.59
2023-08-22T20:05:35.540Z,101324.38
2023-08-22T20:08:03.495Z,101329.75
2023-08-22T20:10:32.033Z,101324.38
2023-08-22T20:13:00.034Z,101327.25
2023-08-22T20:15:29.506Z,101323.91
2023-08-22T20:17:57.673Z,101317.91
2023-08-22T20:20:25.758Z,101321.78
2023-08-22T20:22:53.771Z,101322.03
2023-08-22T20:25:21.855Z,101325.59
2023-08-22T20:27:49.994Z,101325.16
2023-08-22T20:30:18.016Z,101323.50
2023-08-22T20:32:47.346Z,101316.66
2023-08-22T20:35:16.892Z,101322.78
2023-08-22T20:37:47.087Z,101317.75
2023-08-22T20:40:15.239Z,101313.56
2023-08-22T20:42:43.241Z,101319.09
2023-08-22T20:45:11.938Z,101314.06
2023-08-22T20:47:39.933Z,101317.88
2023-08-22T20:50:10.947Z,101317.88
2023-08-22T20:52:38.970Z,101314.44
2023-08-22T20:55:07.485Z,101315.50
2023-08-22T20:57:35.485Z,101317.56
2023-08-22T21:00:07.125Z,101309.91
2023-08-22T21:02:34.993Z,101305.13
2023-08-22T21:05:02.993Z,101305.81
2023-08-22T21:07:32.373Z,101314.56
2023-08-22T21:10:00.219Z,101315.53
2023-08-22T21:12:28.912Z,101317.56
2023-08-22T21:14:56.888Z,101321.19
2023-08-22T21:17:24.929Z,101318.66
2023-08-22T21:19:52.850Z,101313.38
2023-08-22T21:22:20.898Z,101315.31
2023-08-22T21:24:50.214Z,101319.16
2023-08-22T21:27:19.120Z,101311.38
2023-08-22T21:29:47.157Z,101309.22
2023-08-22T21:32:15.794Z,101307.56
2023-08-22T21:34:45.281Z,101306.69
2023-08-22T21:37:13.301Z,101305.41
2023-08-22T21:39:41.265Z,101294.50
2023-08-22T21:42:12.592Z,101298.66
2023-08-22T21:44:41.005Z,101303.13
2023-08-22T21:47:08.921Z,101295.66
2023-08-22T21:49:36.870Z,101302.97
2023-08-22T21:52:05.136Z,101301.91
2023-08-22T21:54:33.323Z,101298.41
2023-08-22T21:57:01.352Z,101311.59
2023-08-22T21:59:30.672Z,101298.88
2023-08-22T22:01:58.723Z,101299.97
2023-08-22T22:04:26.640Z,101298.44
2023-08-22T22:06:54.721Z,101300.78
2023-08-22T22:09:22.759Z,101304.03
2023-08-22T22:11:50.650Z,101299.25
2023-08-22T22:14:18.608Z,101296.97
2023-08-22T22:16:50.170Z,101302.00
2023-08-22T22:19:19.913Z,101311.34
2023-08-22T22:21:50.156Z,101303.38
2023-08-22T22:24:18.176Z,101305.88
2023-08-22T22:26:46.164Z,101310.19
2023-08-22T22:29:14.151Z,101319.75
2023-08-22T22:31:42.165Z,101312.81
2023-08-22T22:34:11.650Z,101321.69
2023-08-22T22:36:39.723Z,101317.22
2023-08-22T22:39:07.789Z,101311.03
2023-08-22T22:41:35.792Z,101316.88
2023-08-22T22:44:03.776Z,101310.91
2023-08-22T22:46:31.887Z,101315.22
2023-08-22T22:48:59.912Z,101322.25
2023-08-22T22:51:29.215Z,101312.56
2023-08-22T22:53:57.134Z,101312.56
2023-08-22T22:56:25.056Z,101307.53
2023-08-22T22:58:52.984Z,101306.22
2023-08-22T23:01:20.980Z,101309.66
2023-08-22T23:03:49.069Z,101303.69
2023-08-22T23:06:17.294Z,101302.97
2023-08-22T23:08:46.793Z,101300.56
2023-08-22T23:11:16.460Z,101293.03
2023-08-22T23:13:54.885Z,101294.94
2023-08-22T23:16:22.921Z,101294.81
2023-08-22T23:18:50.947Z,101285.25
2023-08-22T23:21:18.876Z,101286.22
2023-08-22T23:23:48.228Z,101288.84
2023-08-22T23:26:16.097Z,101291.59
2023-08-22T23:28:44.086Z,101291.59
2023-08-22T23:31:12.043Z,101289.91
2023-08-22T23:33:39.978Z,101294.34
2023-08-22T23:36:07.992Z,101291.00
2023-08-22T23:38:36.077Z,101299.13
2023-08-22T23:41:05.410Z,101288.84
2023-08-22T23:43:33.372Z,101293.28
2023-08-22T23:46:01.277Z,101295.06
2023-08-22T23:48:29.308Z,101296.63
2023-08-22T23:51:10.956Z,101299.47
2023-08-22T23:53:44.630Z,101297.81
2023-08-22T23:56:14.039Z,101304.88
2023-08-22T23:58:41.910Z,101306.81
